Time;durP1;ratioP1;P1;durP2;ratioP2;P2;SDS_P1;SDS_P2;PMS_P1;PMS_P2;Temp;Humidity;BMP_temperature;BMP_pressure;BME280_temperature;BME280_humidity;BME280_pressure;Samples;Min_cycle;Max_cycle;Signal;HPM_P1;HPM_P2
2021/10/22 00:00:31;;;;;;;6.40;1.60;;;;;;;7.23;100.00;100170.50;5010975;28;20177;-78
2021/10/22 00:02:57;;;;;;;9.43;1.63;;;;;;;7.13;100.00;100165.06;5025638;28;20204;-78
2021/10/22 00:05:26;;;;;;;7.80;1.30;;;;;;;7.10;100.00;100165.59;4998502;28;20231;-78
2021/10/22 00:07:56;;;;;;;6.77;1.33;;;;;;;7.12;100.00;100168.84;4968720;28;20186;-78
2021/10/22 00:10:25;;;;;;;6.53;1.40;;;;;;;7.06;100.00;100164.47;4976293;28;20563;-77
2021/10/22 00:12:50;;;;;;;6.60;1.50;;;;;;;7.10;100.00;100157.47;4982968;28;20266;-78
2021/10/22 00:15:18;;;;;;;8.40;1.50;;;;;;;7.19;100.00;100164.81;4998992;28;20625;-78
2021/10/22 00:17:44;;;;;;;4.37;1.17;;;;;;;7.05;100.00;100157.44;5005438;28;20181;-77
2021/10/22 00:20:12;;;;;;;6.23;2.50;;;;;;;7.12;100.00;100152.63;4994748;28;20192;-79
2021/10/22 00:22:38;;;;;;;7.00;1.60;;;;;;;7.20;100.00;100163.75;4988125;28;20802;-78
2021/10/22 00:25:07;;;;;;;6.63;1.43;;;;;;;7.18;100.00;100167.78;4978940;28;20295;-77
2021/10/22 00:27:32;;;;;;;7.27;1.60;;;;;;;7.17;100.00;100171.56;4992312;28;20173;-76
2021/10/22 00:29:58;;;;;;;4.17;1.17;;;;;;;7.23;100.00;100165.13;5011486;28;20681;-78
2021/10/22 00:32:27;;;;;;;6.10;1.20;;;;;;;7.20;100.00;100163.75;4984192;28;20220;-76
2021/10/22 00:34:57;;;;;;;9.97;1.80;;;;;;;7.23;100.00;100162.41;5032229;28;20203;-78
2021/10/22 00:37:23;;;;;;;8.70;1.50;;;;;;;7.13;100.00;100160.47;4994626;28;20213;-76
2021/10/22 00:39:53;;;;;;;5.40;1.40;;;;;;;7.17;100.00;100156.16;4995513;28;20177;-78
2021/10/22 00:42:22;;;;;;;9.03;1.73;;;;;;;7.22;100.00;100164.31;4967530;28;20212;-77
2021/10/22 00:44:48;;;;;;;6.47;2.03;;;;;;;7.23;100.00;100159.72;5030654;28;20168;-77
2021/10/22 00:47:14;;;;;;;6.67;1.30;;;;;;;7.20;100.00;100157.53;4980373;28;20603;-77
2021/10/22 00:49:39;;;;;;;4.40;1.53;;;;;;;7.28;100.00;100153.25;4978228;28;20223;-78
2021/10/22 00:52:08;;;;;;;5.50;1.30;;;;;;;7.30;100.00;100151.09;4962716;28;20278;-77
2021/10/22 00:54:34;;;;;;;6.60;1.30;;;;;;;7.26;100.00;100159.19;4960603;28;20575;-79
2021/10/22 00:57:05;;;;;;;6.47;1.40;;;;;;;7.31;100.00;100158.13;4958196;28;20225;-77
2021/10/22 00:59:30;;;;;;;9.63;1.60;;;;;;;7.35;100.00;100170.03;4996636;28;20193;-78
2021/10/22 01:01:56;;;;;;;6.43;1.47;;;;;;;7.44;100.00;100156.84;4981817;28;20230;-77
2021/10/22 01:04:21;;;;;;;7.20;1.33;;;;;;;7.38;100.00;100161.41;4996388;28;20201;-79
2021/10/22 01:06:47;;;;;;;6.47;1.50;;;;;;;7.38;100.00;100153.31;4962610;28;20621;-78
2021/10/22 01:09:17;;;;;;;6.00;1.30;;;;;;;7.48;100.00;100158.75;4990513;28;20199;-79
2021/10/22 01:11:42;;;;;;;4.53;1.23;;;;;;;7.45;100.00;100151.16;5003412;28;20224;-80
2021/10/22 01:14:13;;;;;;;4.80;1.20;;;;;;;7.41;100.00;100163.56;4987458;28;20236;-79
2021/10/22 01:16:41;;;;;;;8.27;1.40;;;;;;;7.45;100.00;100153.84;4970746;28;20229;-79
2021/10/22 01:19:19;;;;;;;6.53;1.20;;;;;;;7.42;100.00;100167.91;5023392;28;20180;-78
2021/10/22 01:21:48;;;;;;;6.13;1.50;;;;;;;7.39;100.00;100168.44;5019982;28;20232;-78
2021/10/22 01:24:16;;;;;;;7.00;1.20;;;;;;;7.40;100.00;100159.25;5025123;28;20205;-78
2021/10/22 01:26:41;;;;;;;2.77;1.00;;;;;;;7.25;100.00;100168.38;4981584;28;20225;-77
2021/10/22 01:29:08;;;;;;;6.17;1.30;;;;;;;7.36;100.00;100171.69;5007056;28;20290;-77
2021/10/22 01:31:34;;;;;;;4.53;1.40;;;;;;;7.50;100.00;100172.81;5003784;28;20276;-79
2021/10/22 01:33:59;;;;;;;5.17;1.10;;;;;;;7.42;100.00;100161.72;5024300;28;20208;-77
2021/10/22 01:36:26;;;;;;;3.37;1.20;;;;;;;7.37;100.00;100165.19;5001197;28;20300;-78
2021/10/22 01:38:52;;;;;;;5.10;1.27;;;;;;;7.42;100.00;100159.00;4989430;28;20194;-79
2021/10/22 01:41:20;;;;;;;7.13;1.47;;;;;;;7.40;100.00;100161.97;4979395;28;20356;-78
2021/10/22 01:43:50;;;;;;;4.50;1.07;;;;;;;7.35;100.00;100161.94;4975911;28;20706;-77
2021/10/22 01:46:16;;;;;;;4.53;1.20;;;;;;;7.48;100.00;100156.03;5017218;28;20240;-79
2021/10/22 01:48:45;;;;;;;4.60;1.20;;;;;;;7.41;100.00;100163.56;5009269;28;20640;-79
2021/10/22 01:51:15;;;;;;;5.63;1.10;;;;;;;7.48;100.00;100150.63;4978273;28;20611;-77
2021/10/22 01:53:43;;;;;;;5.63;1.23;;;;;;;7.53;100.00;100147.97;4987499;28;20314;-78
2021/10/22 01:56:15;;;;;;;4.30;1.07;;;;;;;7.56;100.00;100150.13;5004336;28;20673;-78
2021/10/22 01:58:43;;;;;;;5.23;1.20;;;;;;;7.55;100.00;100159.31;5014979;28;20177;-78
2021/10/22 02:01:09;;;;;;;6.17;1.30;;;;;;;7.44;100.00;100160.34;4997695;28;20221;-77
2021/10/22 02:03:36;;;;;;;4.40;1.37;;;;;;;7.52;100.00;100165.25;5001571;28;20568;-79
2021/10/22 02:06:04;;;;;;;5.70;1.20;;;;;;;7.54;100.00;100154.97;5002632;28;20232;-78
2021/10/22 02:08:30;;;;;;;5.33;1.20;;;;;;;7.54;100.00;63448.66;5017804;28;20184;-78
2021/10/22 02:10:55;;;;;;;7.93;1.20;;;;;;;7.50;100.00;100156.59;5014498;28;20213;-79
2021/10/22 02:13:24;;;;;;;4.73;1.00;;;;;;;7.42;100.00;100154.41;4999813;28;20283;-77
2021/10/22 02:15:52;;;;;;;4.77;1.13;;;;;;;7.47;100.00;100157.13;4983512;28;20697;-78
2021/10/22 02:18:18;;;;;;;6.37;1.20;;;;;;;7.45;100.00;100159.25;4983496;28;20558;-77
2021/10/22 02:20:46;;;;;;;6.97;1.20;;;;;;;7.44;100.00;100146.84;5033292;28;20224;-77
2021/10/22 02:23:12;;;;;;;6.53;1.13;;;;;;;7.41;100.00;100158.16;5001833;28;20223;-78
2021/10/22 02:25:40;;;;;;;4.23;1.13;;;;;;;7.42;100.00;100165.22;4996562;28;20709;-77
2021/10/22 02:28:07;;;;;;;4.83;1.20;;;;;;;7.46;100.00;100154.69;5002429;28;20188;-79
2021/10/22 02:30:35;;;;;;;3.77;1.03;;;;;;;7.46;100.00;100165.50;4985666;28;20220;-79
2021/10/22 02:33:03;;;;;;;5.50;1.10;;;;;;;7.42;100.00;100167.91;4982351;28;20224;-78
2021/10/22 02:35:31;;;;;;;5.23;1.20;;;;;;;7.51;100.00;100169.03;5011940;28;20222;-77
2021/10/22 02:37:59;;;;;;;8.47;1.70;;;;;;;7.47;100.00;100156.31;5020595;28;20188;-79
2021/10/22 02:40:26;;;;;;;7.03;1.30;;;;;;;7.41;100.00;100147.38;4996633;28;20594;-78
2021/10/22 02:42:57;;;;;;;5.50;1.40;;;;;;;7.55;100.00;100137.69;4979690;28;20198;-78
2021/10/22 02:45:24;;;;;;;5.63;1.30;;;;;;;7.47;100.00;100135.53;5017264;28;20227;-79
2021/10/22 02:47:52;;;;;;;8.37;1.53;;;;;;;7.47;100.00;100138.22;5017787;28;20765;-79
2021/10/22 02:50:21;;;;;;;6.13;1.30;;;;;;;7.41;100.00;100124.94;4987680;28;20659;-79
2021/10/22 02:52:48;;;;;;;6.73;1.43;;;;;;;7.41;100.00;100136.56;4995652;28;20623;-76
2021/10/22 02:55:20;;;;;;;4.30;1.00;;;;;;;7.36;100.00;100139.25;4979968;28;20172;-78
2021/10/22 02:57:48;;;;;;;7.13;1.30;;;;;;;7.39;100.00;100130.63;5034089;28;20606;-78
2021/10/22 03:00:19;;;;;;;5.53;1.33;;;;;;;7.46;100.00;100133.09;4988466;28;20190;-78
2021/10/22 03:02:49;;;;;;;8.80;1.33;;;;;;;7.51;100.00;100133.91;4978333;28;20202;-78
2021/10/22 03:05:16;;;;;;;6.87;1.43;;;;;;;7.67;100.00;100140.97;4977119;28;20200;-78
2021/10/22 03:07:42;;;;;;;5.90;1.30;;;;;;;7.67;100.00;100140.97;5000374;28;20196;-78
2021/10/22 03:10:11;;;;;;;4.93;1.17;;;;;;;7.61;100.00;100117.72;5009859;28;20266;-77
2021/10/22 03:12:37;;;;;;;6.07;1.53;;;;;;;7.58;100.00;100114.72;4996739;28;20201;-77
2021/10/22 03:15:03;;;;;;;7.07;1.77;;;;;;;7.63;100.00;100112.84;4985866;28;20176;-79
2021/10/22 03:17:29;;;;;;;4.70;1.17;;;;;;;7.62;100.00;100111.25;5018180;28;20192;-77
2021/10/22 03:19:55;;;;;;;6.93;1.13;;;;;;;7.69;100.00;100111.78;5030133;28;20778;-78
2021/10/22 03:22:20;;;;;;;4.73;1.17;;;;;;;7.69;100.00;100111.78;4981830;28;20266;-79
2021/10/22 03:24:49;;;;;;;6.13;1.20;;;;;;;7.61;100.00;100111.50;4984369;28;20180;-78
2021/10/22 03:27:15;;;;;;;4.83;1.20;;;;;;;7.61;100.00;100104.22;5018619;28;20219;-78
2021/10/22 03:29:43;;;;;;;5.87;1.20;;;;;;;7.72;100.00;100098.56;5016928;28;20180;-79
2021/10/22 03:32:09;;;;;;;5.33;1.23;;;;;;;7.84;100.00;100098.31;4961029;28;20684;-77
2021/10/22 03:34:35;;;;;;;8.87;1.60;;;;;;;7.73;100.00;100086.69;4979096;28;20214;-78
2021/10/22 03:37:00;;;;;;;6.43;1.40;;;;;;;7.81;100.00;100099.66;5016131;28;20228;-78
2021/10/22 03:39:33;;;;;;;7.60;1.60;;;;;;;7.77;100.00;100092.38;4996572;28;20193;-77
2021/10/22 03:41:59;;;;;;;6.07;1.10;;;;;;;7.67;100.00;100098.56;5014397;28;20311;-78
2021/10/22 03:44:27;;;;;;;5.40;1.33;;;;;;;7.55;100.00;100099.88;5016583;28;20206;-78
2021/10/22 03:46:53;;;;;;;6.37;1.20;;;;;;;7.54;100.00;100095.53;5001223;28;20225;-78
2021/10/22 03:49:21;;;;;;;6.07;1.50;;;;;;;7.57;100.00;100083.41;4996130;28;20185;-79
2021/10/22 03:51:46;;;;;;;5.53;1.30;;;;;;;7.65;100.00;100083.69;4994150;28;20220;-77
2021/10/22 03:54:19;;;;;;;5.97;1.40;;;;;;;7.54;100.00;100086.63;5016670;28;20204;-79
2021/10/22 03:56:44;;;;;;;6.90;1.03;;;;;;;7.53;100.00;100088.53;5006703;28;20231;-80
2021/10/22 03:59:10;;;;;;;5.93;1.40;;;;;;;7.41;100.00;100082.53;4991037;28;20184;-77
2021/10/22 04:01:38;;;;;;;5.40;1.57;;;;;;;7.42;100.00;100084.16;5011338;28;20220;-77
2021/10/22 04:04:06;;;;;;;9.00;2.00;;;;;;;7.44;100.00;100087.41;5004290;28;20201;-79
2021/10/22 04:06:35;;;;;;;4.40;1.20;;;;;;;7.38;100.00;100087.66;4990834;28;20213;-77
2021/10/22 04:09:01;;;;;;;4.67;1.50;;;;;;;7.33;100.00;100077.66;4995099;28;20185;-79
2021/10/22 04:11:29;;;;;;;7.00;1.73;;;;;;;7.27;100.00;100074.38;4974810;28;20227;-79
2021/10/22 04:13:57;;;;;;;6.90;1.53;;;;;;;7.33;100.00;100061.44;5002952;28;20208;-79
2021/10/22 04:16:25;;;;;;;6.13;1.40;;;;;;;7.30;100.00;100075.47;4990237;28;20210;-79
2021/10/22 04:18:53;;;;;;;4.37;1.20;;;;;;;7.33;100.00;100058.75;4980070;28;20276;-79
2021/10/22 04:21:18;;;;;;;10.23;1.53;;;;;;;7.29;100.00;100062.25;5007385;28;20283;-79
2021/10/22 04:23:46;;;;;;;5.60;1.50;;;;;;;7.28;100.00;100065.22;5037040;28;20208;-78
2021/10/22 04:26:14;;;;;;;5.80;1.57;;;;;;;7.40;100.00;100072.03;4999592;28;20235;-80
2021/10/22 04:28:42;;;;;;;7.93;1.70;;;;;;;7.45;100.00;100067.41;4985066;28;20203;-77
2021/10/22 04:31:07;;;;;;;5.27;1.40;;;;;;;7.42;100.00;100061.75;4997639;28;20471;-79
2021/10/22 04:33:33;;;;;;;5.00;1.40;;;;;;;7.54;100.00;100068.50;4986701;28;20212;-81
2021/10/22 04:36:01;;;;;;;10.20;1.50;;;;;;;7.40;100.00;100059.31;5017513;28;20216;-80
2021/10/22 04:41:15;;;;;;;8.53;1.63;;;;;;;7.58;100.00;100061.53;5003801;28;20702;-78
2021/10/22 04:43:43;;;;;;;6.17;1.90;;;;;;;7.57;100.00;100059.88;5035190;28;20610;-80
2021/10/22 04:46:09;;;;;;;5.93;1.30;;;;;;;7.57;100.00;100068.00;5036268;28;20235;-78
2021/10/22 04:48:39;;;;;;;5.03;1.50;;;;;;;7.60;100.00;100059.38;4998522;28;20176;-78
2021/10/22 04:51:07;;;;;;;5.97;1.47;;;;;;;7.63;100.00;100061.50;4985263;28;20224;-78
2021/10/22 04:53:33;;;;;;;6.87;1.23;;;;;;;7.63;100.00;100053.41;5000709;28;20242;-79
2021/10/22 04:55:58;;;;;;;7.87;1.50;;;;;;;7.75;100.00;100053.97;5015164;28;20227;-78
2021/10/22 04:58:24;;;;;;;8.07;1.77;;;;;;;7.73;100.00;100056.16;5015905;28;20666;-79
2021/10/22 05:00:52;;;;;;;5.07;1.40;;;;;;;7.72;100.00;100057.22;4999558;28;20244;-80
2021/10/22 05:03:21;;;;;;;5.97;1.50;;;;;;;7.71;100.00;100055.59;5000742;28;20215;-78
2021/10/22 05:05:48;;;;;;;7.40;1.60;;;;;;;7.76;100.00;100048.28;5003202;28;20236;-79
2021/10/22 05:08:14;;;;;;;5.43;1.30;;;;;;;7.89;100.00;100041.53;4983815;28;20181;-79
2021/10/22 05:10:42;;;;;;;7.53;1.50;;;;;;;7.85;100.00;100035.06;4979277;28;20225;-79
2021/10/22 05:13:08;;;;;;;6.87;1.43;;;;;;;7.93;100.00;100021.00;4992977;28;20204;-78
2021/10/22 05:15:34;;;;;;;5.07;1.50;;;;;;;7.91;100.00;100023.16;5017296;28;20228;-79
2021/10/22 05:18:02;;;;;;;6.17;1.83;;;;;;;7.87;100.00;100024.78;4966988;28;20190;-78
2021/10/22 05:20:27;;;;;;;5.40;1.20;;;;;;;7.83;100.00;100023.72;4946139;28;20304;-78
2021/10/22 05:22:53;;;;;;;6.27;1.53;;;;;;;7.88;100.00;100015.59;5016612;28;20222;-78
2021/10/22 05:25:20;;;;;;;7.27;1.40;;;;;;;8.00;100.00;100026.94;5001175;28;20212;-79
2021/10/22 05:27:46;;;;;;;7.37;1.53;;;;;;;7.98;100.00;100008.28;5010475;28;20216;-79
2021/10/22 05:30:12;;;;;;;5.37;1.57;;;;;;;8.08;100.00;100008.28;5015720;28;20173;-79
2021/10/22 05:32:37;;;;;;;7.60;1.87;;;;;;;8.02;100.00;99995.84;4993518;28;20669;-79
2021/10/22 05:35:06;;;;;;;8.00;1.50;;;;;;;7.90;100.00;99983.69;5021419;28;20184;-79
2021/10/22 05:37:33;;;;;;;7.30;1.70;;;;;;;7.99;100.00;99992.91;5014388;28;20650;-80
2021/10/22 05:39:59;;;;;;;6.30;1.50;;;;;;;7.98;100.00;99983.16;4986152;28;20223;-78
2021/10/22 05:42:24;;;;;;;6.77;1.67;;;;;;;8.02;100.00;99982.31;4973622;28;20216;-79
2021/10/22 05:44:50;;;;;;;7.87;1.90;;;;;;;8.00;100.00;99986.38;5021609;28;20180;-79
2021/10/22 05:47:18;;;;;;;5.67;1.30;;;;;;;8.10;100.00;99971.00;5018586;28;20307;-79
2021/10/22 05:49:46;;;;;;;5.00;1.30;;;;;;;8.21;100.00;99976.13;4986195;28;20197;-80
2021/10/22 05:52:11;;;;;;;4.63;1.40;;;;;;;8.04;100.00;99975.56;5002126;28;20232;-78
2021/10/22 05:54:37;;;;;;;5.40;1.70;;;;;;;8.11;100.00;99973.44;5005472;28;20188;-79
2021/10/22 05:57:05;;;;;;;6.37;1.50;;;;;;;8.13;100.00;99960.47;5004492;28;20324;-80
2021/10/22 05:59:30;;;;;;;5.27;1.40;;;;;;;8.11;100.00;99962.63;5002737;28;20188;-80
2021/10/22 06:01:59;;;;;;;6.60;2.37;;;;;;;8.14;100.00;99974.78;4969231;28;20236;-78
2021/10/22 06:04:27;;;;;;;5.70;1.23;;;;;;;8.16;100.00;99978.81;5003701;28;20214;-79
2021/10/22 06:06:53;;;;;;;9.33;1.90;;;;;;;8.16;100.00;99978.81;5021361;28;20682;-77
2021/10/22 06:09:19;;;;;;;7.40;1.70;;;;;;;8.06;100.00;99970.72;4984249;28;20191;-78
2021/10/22 06:11:49;;;;;;;5.97;1.37;;;;;;;8.11;100.00;99961.78;4980766;28;20229;-77
2021/10/22 06:14:17;;;;;;;8.77;1.80;;;;;;;8.04;100.00;99955.84;5030337;28;20212;-78
2021/10/22 06:16:43;;;;;;;4.70;1.33;;;;;;;8.09;100.00;99961.22;5019755;28;20311;-77
2021/10/22 06:19:14;;;;;;;4.40;1.40;;;;;;;8.18;100.00;99956.91;4984781;28;20186;-79
2021/10/22 06:24:10;;;;;;;6.80;1.80;;;;;;;8.29;100.00;99956.63;5013640;28;20283;-78
2021/10/22 06:26:41;;;;;;;7.20;1.50;;;;;;;8.25;100.00;99952.03;5019326;28;20228;-78
2021/10/22 06:29:07;;;;;;;5.97;1.30;;;;;;;8.24;100.00;99961.22;5003420;28;20186;-78
2021/10/22 06:31:38;;;;;;;5.33;1.37;;;;;;;8.20;100.00;99939.31;4996667;28;20308;-79
2021/10/22 06:34:05;;;;;;;6.67;1.37;;;;;;;8.35;100.00;99955.53;5020370;28;20283;-79
2021/10/22 06:36:30;;;;;;;6.07;1.40;;;;;;;8.46;100.00;99946.28;5037303;28;20701;-78
2021/10/22 06:38:59;;;;;;;8.07;1.40;;;;;;;8.48;100.00;99954.97;4991759;28;20181;-79
2021/10/22 06:41:24;;;;;;;5.57;1.53;;;;;;;8.54;100.00;99948.44;4996992;28;20225;-80
2021/10/22 06:43:53;;;;;;;4.80;1.37;;;;;;;8.47;100.00;99947.91;4981586;28;20262;-77
2021/10/22 06:46:21;;;;;;;7.87;1.60;;;;;;;8.51;100.00;99947.06;5020919;28;20307;-79
2021/10/22 06:48:49;;;;;;;6.80;1.67;;;;;;;8.43;100.00;99941.44;5014200;28;20263;-79
2021/10/22 06:51:21;;;;;;;5.33;1.10;;;;;;;8.39;100.00;99942.25;5002146;28;20698;-80
2021/10/22 06:53:49;;;;;;;6.47;1.50;;;;;;;8.34;100.00;99943.09;5008558;28;20723;-79
2021/10/22 06:56:17;;;;;;;4.30;1.10;;;;;;;8.38;100.00;99952.25;5004705;28;20216;-78
2021/10/22 06:58:45;;;;;;;9.00;1.60;;;;;;;8.46;100.00;99946.28;4996209;28;20228;-78
2021/10/22 07:01:13;;;;;;;6.13;1.67;;;;;;;8.55;100.00;99941.91;4997938;28;20225;-79
2021/10/22 07:03:44;;;;;;;6.70;2.07;;;;;;;8.77;100.00;99953.19;5019320;28;20204;-77
2021/10/22 07:08:58;;;;;;;8.50;2.20;;;;;;;8.68;100.00;99944.03;5027824;28;20190;-80
2021/10/22 07:11:26;;;;;;;7.23;1.83;;;;;;;8.78;100.00;99935.88;4982080;28;20311;-78
2021/10/22 07:13:54;;;;;;;5.30;1.50;;;;;;;8.74;100.00;99943.75;5001011;28;20298;-78
2021/10/22 07:16:20;;;;;;;9.57;1.60;;;;;;;8.86;100.00;99939.63;5020505;28;20610;-78
2021/10/22 07:18:46;;;;;;;5.60;1.30;;;;;;;8.91;100.00;99936.88;5001145;28;20184;-79
2021/10/22 07:21:14;;;;;;;6.37;1.23;;;;;;;9.02;100.00;99927.63;4985089;28;20640;-78
2021/10/22 07:23:41;;;;;;;4.57;1.20;;;;;;;9.06;100.00;99925.97;4970098;28;20697;-78
2021/10/22 07:26:09;;;;;;;5.10;1.27;;;;;;;8.96;100.00;99934.16;5003052;28;20232;-78
2021/10/22 07:28:37;;;;;;;8.43;1.50;;;;;;;9.02;100.00;99924.91;5037354;28;20173;-77
2021/10/22 07:31:02;;;;;;;9.03;1.80;;;;;;;9.06;100.00;99934.09;4996404;28;20233;-78
2021/10/22 07:33:28;;;;;;;5.93;1.63;;;;;;;9.06;100.00;99934.09;4965010;28;20652;-79
2021/10/22 07:35:59;;;;;;;4.87;1.20;;;;;;;9.07;100.00;99930.31;4999826;28;20223;-78
2021/10/22 07:38:26;;;;;;;9.20;1.70;;;;;;;9.07;100.00;99930.31;5011741;28;20192;-78
2021/10/22 07:40:52;;;;;;;6.73;1.47;;;;;;;9.12;100.00;99924.03;4982885;28;20228;-77
2021/10/22 07:43:20;;;;;;;7.17;1.40;;;;;;;9.12;100.00;99919.44;4983768;28;20208;-79
2021/10/22 07:45:46;;;;;;;6.53;1.60;;;;;;;9.18;100.00;99933.78;4998849;28;20255;-79
2021/10/22 07:48:14;;;;;;;6.77;1.63;;;;;;;9.22;100.00;99924.78;5003706;28;20277;-79
2021/10/22 07:50:43;;;;;;;5.43;1.50;;;;;;;9.25;100.00;99918.81;5005365;28;20295;-80
2021/10/22 07:53:16;;;;;;;5.13;1.40;;;;;;;9.14;100.00;99921.84;5000295;28;20197;-79
2021/10/22 07:55:46;;;;;;;5.60;1.60;;;;;;;9.09;100.00;99920.00;5014227;28;20705;-79
2021/10/22 07:58:14;;;;;;;4.13;1.30;;;;;;;9.16;100.00;99917.78;5019590;28;20188;-79
2021/10/22 08:00:40;;;;;;;6.20;1.20;;;;;;;9.16;100.00;99920.50;5004409;28;20218;-79
2021/10/22 08:03:07;;;;;;;5.77;1.40;;;;;;;9.24;100.00;99933.44;4965146;28;20201;-78
2021/10/22 08:05:33;;;;;;;7.07;1.60;;;;;;;9.37;100.00;99927.38;5019970;28;20235;-79
2021/10/22 08:08:03;;;;;;;7.63;1.70;;;;;;;9.36;100.00;99909.53;5005427;28;20184;-78
2021/10/22 08:10:34;;;;;;;10.03;1.80;;;;;;;9.45;100.00;99921.34;5011548;28;20222;-77
2021/10/22 08:13:00;;;;;;;4.00;1.30;;;;;;;9.32;100.00;99920.13;5002552;28;20262;-78
2021/10/22 08:15:26;;;;;;;1.17;0.77;;;;;;;9.21;100.00;99912.31;5010557;28;20756;-79
2021/10/22 08:17:52;;;;;;;4.73;1.20;;;;;;;9.45;100.00;99924.06;5021195;28;20204;-78
2021/10/22 08:20:24;;;;;;;7.77;1.60;;;;;;;9.39;100.00;99925.19;4998711;28;20196;-77
2021/10/22 08:22:52;;;;;;;6.07;1.60;;;;;;;9.33;100.00;99910.06;4991848;28;20225;-78
2021/10/22 08:25:21;;;;;;;4.60;1.37;;;;;;;9.42;100.00;99921.94;5008774;28;20809;-79
2021/10/22 08:27:50;;;;;;;7.77;1.70;;;;;;;9.38;100.00;99920.88;5035597;28;20184;-78
2021/10/22 08:30:22;;;;;;;6.97;1.73;;;;;;;9.50;100.00;99921.31;4993743;28;20668;-79
2021/10/22 08:32:50;;;;;;;6.90;1.33;;;;;;;9.44;100.00;99923.25;4997015;28;20208;-78
2021/10/22 08:35:21;;;;;;;4.93;1.43;;;;;;;9.58;100.00;99913.41;4979143;28;20246;-78
2021/10/22 08:37:50;;;;;;;5.20;1.30;;;;;;;9.59;100.00;99913.09;4997820;28;20281;-79
2021/10/22 08:40:20;;;;;;;4.57;1.20;;;;;;;9.61;100.00;99919.06;4971938;28;20169;-77
2021/10/22 08:42:48;;;;;;;6.27;1.47;;;;;;;9.66;100.00;99894.59;4988074;28;20291;-80
2021/10/22 08:45:14;;;;;;;6.17;1.60;;;;;;;9.62;100.00;99892.75;5035260;28;20187;-77
2021/10/22 08:47:39;;;;;;;5.37;1.67;;;;;;;9.68;100.00;99908.69;4999758;28;20185;-80
2021/10/22 08:50:12;;;;;;;5.23;1.30;;;;;;;9.63;100.00;99888.94;5000452;28;20239;-79
2021/10/22 08:52:45;;;;;;;6.73;1.50;;;;;;;-138.14;100.00;63448.66;5021050;28;20206;-76
2021/10/22 08:55:13;;;;;;;5.97;1.70;;;;;;;-138.14;100.00;63448.66;5017753;28;20240;-77
2021/10/22 08:57:42;;;;;;;5.00;1.73;;;;;;;-138.14;100.00;63448.66;5001476;28;20630;-79
2021/10/22 09:00:11;;;;;;;5.03;1.50;;;;;;;-138.14;100.00;63448.66;4984544;28;20629;-79
2021/10/22 09:02:37;;;;;;;7.57;1.70;;;;;;;9.63;100.00;63448.66;5036968;28;20212;-78
2021/10/22 09:05:37;;;;;;;5.87;1.70;;;;;;;9.89;100.00;99912.03;5005356;28;20242;-79
2021/10/22 09:08:05;;;;;;;5.27;1.83;;;;;;;9.79;100.00;99904.78;4938210;28;20722;-79
2021/10/22 09:10:39;;;;;;;7.67;1.70;;;;;;;9.89;100.00;99899.28;4975254;28;20311;-78
2021/10/22 09:13:08;;;;;;;5.70;2.00;;;;;;;10.02;100.00;99909.50;5024627;28;20208;-79
2021/10/22 09:15:39;;;;;;;6.53;1.70;;;;;;;9.98;100.00;99900.28;5022810;28;20213;-79
2021/10/22 09:18:23;;;;;;;4.37;1.53;;;;;;;9.99;100.00;99907.34;4989028;28;20196;-78
2021/10/22 09:21:00;;;;;;;7.57;1.97;;;;;;;10.01;100.00;99918.72;5008736;28;20354;-78
2021/10/22 09:23:33;;;;;;;7.47;1.33;;;;;;;10.08;100.00;99911.06;5041045;28;20306;-77
2021/10/22 09:26:20;;;;;;;7.53;2.30;;;;;;;10.17;100.00;99917.47;5023123;28;20221;-78
2021/10/22 09:28:46;;;;;;;6.40;1.60;;;;;;;10.16;100.00;99922.06;5004728;28;20204;-78
2021/10/22 09:31:12;;;;;;;5.33;1.50;;;;;;;10.09;100.00;99904.53;4992865;28;20586;-77
2021/10/22 09:34:00;;;;;;;6.67;1.80;;;;;;;10.16;100.00;99905.00;5023901;28;20207;-78
2021/10/22 09:36:36;;;;;;;3.73;1.10;;;;;;;10.07;100.00;99917.56;5017061;28;20295;-77
2021/10/22 09:39:14;;;;;;;5.87;1.80;;;;;;;10.07;100.00;99933.84;5003208;28;20592;-78
2021/10/22 09:41:55;;;;;;;6.50;1.40;;;;;;;10.12;100.00;99918.31;5020694;28;20228;-79
2021/10/22 09:44:34;;;;;;;4.70;1.50;;;;;;;10.22;100.00;99920.94;4988803;28;20682;-79
2021/10/22 09:47:06;;;;;;;4.23;1.70;;;;;;;10.22;100.00;99914.69;5014682;28;20311;-79
2021/10/22 09:49:37;;;;;;;4.47;1.47;;;;;;;10.21;100.00;99929.38;5040428;28;20240;-78
2021/10/22 09:52:13;;;;;;;4.23;1.50;;;;;;;10.17;100.00;99912.06;5032142;28;20220;-79
2021/10/22 09:54:41;;;;;;;3.40;1.70;;;;;;;10.30;100.00;99923.03;4987812;28;20189;-78
2021/10/22 09:57:09;;;;;;;5.80;1.40;;;;;;;10.23;100.00;99911.69;5012198;28;20304;-81
2021/10/22 09:59:42;;;;;;;5.37;1.50;;;;;;;10.24;100.00;99923.38;5023406;28;20231;-79
2021/10/22 10:02:11;;;;;;;4.77;1.00;;;;;;;10.37;100.00;99911.84;5014718;28;20232;-78
2021/10/22 10:04:37;;;;;;;4.90;1.70;;;;;;;10.48;100.00;99904.09;4990536;28;20181;-78
2021/10/22 10:07:06;;;;;;;4.27;1.40;;;;;;;10.48;100.00;99920.38;5009327;28;20231;-81
2021/10/22 10:09:37;;;;;;;4.90;1.50;;;;;;;10.45;100.00;99909.28;5006646;28;20188;-79
2021/10/22 10:12:04;;;;;;;5.20;1.53;;;;;;;10.56;100.00;99922.44;5034225;28;20220;-80
2021/10/22 10:14:32;;;;;;;5.20;1.33;;;;;;;10.54;100.00;99924.63;5020425;28;20212;-78
2021/10/22 10:17:02;;;;;;;5.73;1.40;;;;;;;10.18;100.00;99929.94;5023960;28;20209;-79
2021/10/22 10:19:33;;;;;;;3.13;1.37;;;;;;;10.01;100.00;99935.00;5006573;28;20249;-79
2021/10/22 10:22:09;;;;;;;6.27;1.87;;;;;;;9.88;100.00;99930.22;5018952;28;20702;-79
2021/10/22 10:24:43;;;;;;;5.27;1.70;;;;;;;9.83;100.00;99924.81;5006195;28;20184;-78
2021/10/22 10:27:16;;;;;;;5.07;1.50;;;;;;;9.83;100.00;99927.53;4990334;28;20216;-78
2021/10/22 10:29:50;;;;;;;4.07;1.30;;;;;;;9.88;100.00;99924.78;5039722;28;20179;-80
2021/10/22 10:32:18;;;;;;;5.73;1.40;;;;;;;9.87;100.00;99923.19;5033071;28;20286;-78
2021/10/22 10:34:47;;;;;;;5.33;1.93;;;;;;;9.92;100.00;99925.06;5019068;28;20223;-78
2021/10/22 10:37:27;;;;;;;6.20;1.70;;;;;;;9.97;100.00;99914.16;5022789;28;20365;-78
2021/10/22 10:39:56;;;;;;;7.00;1.50;;;;;;;9.89;100.00;99934.56;5008100;28;20605;-79
2021/10/22 10:42:37;;;;;;;7.33;1.70;;;;;;;9.89;100.00;99922.88;4997932;28;20212;-79
2021/10/22 10:45:20;;;;;;;3.60;1.40;;;;;;;9.85;100.00;99919.13;4997298;28;20190;-79
2021/10/22 10:48:13;;;;;;;4.57;1.50;;;;;;;9.77;100.00;99928.69;5010819;28;20192;-79
2021/10/22 10:50:58;;;;;;;5.17;1.57;;;;;;;9.66;100.00;99943.41;5037346;28;20231;-81
2021/10/22 10:53:33;;;;;;;8.53;1.80;;;;;;;9.74;100.00;99942.00;5026678;28;20273;-78
2021/10/22 10:55:59;;;;;;;5.10;1.53;;;;;;;9.68;100.00;99927.66;5000962;28;20220;-78
2021/10/22 10:58:27;;;;;;;5.30;1.50;;;;;;;9.62;100.00;99936.13;4997717;28;20185;-78
2021/10/22 11:00:59;;;;;;;3.77;1.43;;;;;;;9.59;100.00;99951.06;5036224;28;20283;-79
2021/10/22 11:03:46;;;;;;;5.70;1.50;;;;;;;9.60;100.00;99962.72;5026123;28;20296;-79
2021/10/22 11:06:34;;;;;;;7.07;1.53;;;;;;;9.53;100.00;99959.53;5001633;28;20228;-80
2021/10/22 11:09:00;;;;;;;6.53;1.87;;;;;;;9.47;100.00;99959.81;5016471;28;20215;-79
2021/10/22 11:11:28;;;;;;;5.70;2.00;;;;;;;9.47;100.00;99970.66;5020024;28;20247;-80
2021/10/22 11:14:04;;;;;;;5.60;1.90;;;;;;;9.34;100.00;99992.97;5023242;28;20673;-78
2021/10/22 11:16:39;;;;;;;7.73;1.87;;;;;;;9.30;100.00;99998.16;5017416;28;20258;-81
2021/10/22 11:19:08;;;;;;;6.23;2.00;;;;;;;9.28;100.00;99994.09;5029765;28;20196;-78
2021/10/22 11:21:35;;;;;;;5.73;1.70;;;;;;;9.12;100.00;100016.13;5020088;28;20594;-78
2021/10/22 11:24:02;;;;;;;6.90;2.10;;;;;;;9.11;100.00;100000.97;5004971;28;20570;-81
2021/10/22 11:26:30;;;;;;;7.53;2.00;;;;;;;9.11;100.00;100012.63;4966019;28;20289;-79
2021/10/22 11:29:12;;;;;;;7.43;2.20;;;;;;;9.15;100.00;100026.41;5001435;28;20232;-81
2021/10/22 11:31:45;;;;;;;8.57;2.30;;;;;;;9.13;100.00;100023.97;4999056;28;20225;-78
2021/10/22 11:34:17;;;;;;;11.30;2.90;;;;;;;9.06;100.00;100047.84;5013234;28;20335;-78
2021/10/22 11:37:09;;;;;;;9.07;2.60;;;;;;;9.09;100.00;100041.88;5035056;28;20602;-79
2021/10/22 11:39:40;;;;;;;10.23;2.13;;;;;;;9.09;100.00;100017.50;5006348;28;20184;-77
2021/10/22 11:42:09;;;;;;;5.27;1.23;;;;;;;9.09;100.00;100017.50;4983535;28;20228;-79